Al Rawdah — V7VM8 — position and weather

sailwx.info

Track history (hours):
 
Tides and Currents Weather Stations Pressure Air Temp Water Temp Dewpoint Dewpoint Depression Visibility Wind Speed Wind Dir Waves Ship Positions

Al Rawdah

Last reported at 2016-Jul-12 07:20 UTC. Time now 2016-Jul-25 08:12 UTC.
Position N 30°59' E 032°19'.
Warning: this ship's position is 13 days out of date.

Length 307 m; draft 13.3 m.

Type: Ship (hazmat cat A). MMSI: 538004160.

Date/timePositionNaut miles runAvg speedWind from/ knotsBaromVisibWave heightAir tempDewpointWater temp
2016-Jul-12 07:20N 30°59' E 032°19'10 9.4
2016-Jul-12 06:16N 31°09' E 032°18'6 2.9
2016-Jul-12 04:21N 31°14' E 032°18'0 0.0
2016-Jul-11 13:30N 31°14' E 032°18'2 0.5
2016-Jul-11 08:12N 31°17' E 032°20'7 9.3
2016-Jul-11 07:30N 31°23' E 032°22'3 2.1
2016-Jul-11 06:18N 31°24' E 032°20'0 0.0
2016-Jul-11 04:25N 31°24' E 032°20'3 3.0
2016-Jul-11 03:33N 31°26' E 032°18'1414.3
2016-Jul-11 02:33N 31°37' E 032°07'1716.8
2016-Jul-11 01:33N 31°48' E 031°52'1716.6
2016-Jul-11 00:33N 31°54' E 031°34'1716.9
2016-Jul-10 23:34N 31°59' E 031°15'1716.8
2016-Jul-10 22:33N 32°02' E 030°55'1716.9
2016-Jul-10 21:33N 32°07' E 030°36'1716.8
2016-Jul-10 20:33N 32°12' E 030°17'1916.8
2016-Jul-10 19:25N 32°17' E 029°55'1416.7
2016-Jul-10 18:33N 32°21' E 029°39'1716.6
2016-Jul-10 17:33N 32°25' E 029°20'1816.7
2016-Jul-10 16:29N 32°30' E 028°59'1716.7
2016-Jul-10 15:29N 32°34' E 028°40'2016.8
2016-Jul-10 14:18N 32°39' E 028°17'1617.5
2016-Jul-10 13:23N 32°44' E 027°59'9618.1
2016-Jul-10 08:04N 33°09' E 026°09'51218.5
2016-Jul-09 04:28N 35°26' E 016°11'1718.8
2016-Jul-09 03:33N 35°30' E 015°51'2018.7
2016-Jul-09 02:28N 35°35' E 015°27'1718.8
2016-Jul-09 01:33N 35°40' E 015°07'1919.1
2016-Jul-09 00:33N 35°45' E 014°44'1010.1
2016-Jul-08 23:33N 35°49' E 014°33'0 0.0
2016-Jul-08 22:29N 35°49' E 014°33'0 0.0
2016-Jul-08 21:32N 35°49' E 014°33'0 0.0
2016-Jul-08 20:05N 35°49' E 014°33'0 0.0
2016-Jul-08 19:26N 35°49' E 014°33'0 0.0
2016-Jul-08 18:32N 35°49' E 014°33'0 0.0
2016-Jul-08 16:32N 35°49' E 014°33'0 0.0
2016-Jul-08 15:11N 35°49' E 014°33'0 0.0
2016-Jul-08 13:29N 35°49' E 014°33'0 0.0
2016-Jul-08 12:32N 35°49' E 014°33'0 0.0
2016-Jul-08 11:29N 35°49' E 014°33'0 0.0
2016-Jul-08 10:32N 35°49' E 014°33'0 0.0
2016-Jul-08 09:32N 35°49' E 014°33'0 0.0
2016-Jul-08 08:32N 35°49' E 014°33'0 0.0
2016-Jul-08 07:29N 35°49' E 014°33'0 0.2
2016-Jul-08 06:33N 35°49' E 014°33'5 2.4
2016-Jul-08 04:33N 35°46' E 014°37'7 6.7
2016-Jul-08 03:33N 35°42' E 014°31'10 9.6
2016-Jul-08 02:33N 35°43' E 014°19'1212.4
2016-Jul-08 01:33N 35°51' E 014°07'1212.1
2016-Jul-08 00:33N 35°59' E 013°56'1211.8
2016-Jul-07 23:33N 36°07' E 013°45'1212.2
2016-Jul-07 22:33N 36°15' E 013°34'1212.5
2016-Jul-07 21:33N 36°24' E 013°23'5 4.7
2016-Jul-07 20:33N 36°28' E 013°19'0 0.4
2016-Jul-07 19:33N 36°28' E 013°19'1 0.9
2016-Jul-07 18:33N 36°29' E 013°19'7 6.6
2016-Jul-07 17:33N 36°34' E 013°14'1212.5
2016-Jul-07 16:33N 36°43' E 013°03'1212.5
2016-Jul-07 15:33N 36°52' E 012°52'1312.7
2016-Jul-07 14:33N 37°01' E 012°41'1212.3
2016-Jul-07 13:33N 37°10' E 012°30'10 9.7
2016-Jul-07 12:33N 37°18' E 012°23'1010.0
2016-Jul-07 11:33N 37°25' E 012°15'10 9.9
2016-Jul-07 10:33N 37°33' E 012°07'11 9.4
2016-Jul-07 09:24N 37°41' E 011°58'11 9.1
2016-Jul-07 08:14N 37°50' E 011°50'10 9.0
2016-Jul-07 07:10N 37°58' E 011°44'711.3
2016-Jul-07 06:31N 38°04' E 011°39'1111.1
2016-Jul-07 05:33N 38°14' E 011°33'1110.9
2016-Jul-07 04:33N 38°23' E 011°26'1111.2
2016-Jul-07 03:33N 38°33' E 011°18'1411.2
2016-Jul-07 02:20N 38°45' E 011°10'2211.5
2016-Jul-07 00:23N 39°05' E 010°57'1011.7
2016-Jul-06 23:33N 39°13' E 010°51'1211.7
2016-Jul-06 22:33N 39°24' E 010°44'1311.6
2016-Jul-06 21:24N 39°36' E 010°38'1011.8
2016-Jul-06 20:31N 39°47' E 010°36'1111.6
2016-Jul-06 19:33N 39°58' E 010°34'1111.4
2016-Jul-06 18:33N 40°09' E 010°31'1111.4
2016-Jul-06 17:33N 40°20' E 010°28'2412.0
2016-Jul-06 15:32N 40°44' E 010°23'22 9.4
2016-Jul-06 13:15N 41°05' E 010°17'8 8.9
2016-Jul-06 12:19N 41°13' E 010°15'7 8.9
2016-Jul-06 11:33N 41°20' E 010°13'18 8.8
2016-Jul-06 09:33N 41°37' E 010°08'1211.7
2016-Jul-06 08:33N 41°48' E 010°05'2221.7
2016-Jul-06 07:33N 42°10' E 010°00'2013.3
2016-Jul-06 06:04N 42°29' E 009°53'2011.8
2016-Jul-06 04:23N 42°47' E 009°43'1011.3
2016-Jul-06 03:32N 42°57' E 009°39'1111.3
2016-Jul-06 02:33N 43°07' E 009°34'1211.7
2016-Jul-06 01:33N 43°18' E 009°29'1211.7
2016-Jul-06 00:33N 43°29' E 009°23'1211.5
2016-Jul-05 23:33N 43°40' E 009°18'1111.4
2016-Jul-05 22:33N 43°51' E 009°13'1111.4
2016-Jul-05 21:33N 44°01' E 009°07'9 9.3
2016-Jul-05 20:33N 44°10' E 009°01'8 8.5
2016-Jul-05 19:33N 44°18' E 008°59'7 7.0
2016-Jul-05 18:33N 44°24' E 008°55'0 0.1
2016-Jul-05 17:32N 44°24' E 008°55'0 0.0
2016-Jul-05 16:32N 44°24' E 008°55'0 0.0
2016-Jul-05 15:32N 44°24' E 008°55'0 0.0
2016-Jul-05 14:32N 44°24' E 008°55'0 0.0
2016-Jul-05 13:32N 44°24' E 008°55'0 0.0
2016-Jul-05 12:32N 44°24' E 008°55'0 0.0
2016-Jul-05 11:32N 44°24' E 008°55'0 0.0
2016-Jul-05 10:32N 44°24' E 008°55'0 0.0
2016-Jul-05 09:32N 44°24' E 008°55'0 0.0
2016-Jul-05 08:26N 44°24' E 008°55'0 0.0
2016-Jul-05 07:32N 44°24' E 008°55'0 0.0
2016-Jul-05 06:32N 44°24' E 008°55'0 0.0
2016-Jul-05 04:32N 44°24' E 008°55'0 0.0
2016-Jul-05 03:33N 44°24' E 008°55'4 4.4
2016-Jul-05 02:33N 44°21' E 008°59'8 7.9
2016-Jul-05 01:33N 44°13' E 009°03'1111.3
2016-Jul-05 00:33N 44°02' E 009°04'1111.3
2016-Jul-04 23:33N 43°52' E 008°57'1212.2
2016-Jul-04 22:33N 43°45' E 008°44'1212.0
2016-Jul-04 21:34N 43°37' E 008°31'1212.4
2016-Jul-04 20:33N 43°30' E 008°17'1312.5
2016-Jul-04 19:33N 43°22' E 008°04'1312.6
2016-Jul-04 18:33N 43°14' E 007°50'1212.4
2016-Jul-04 17:33N 43°07' E 007°37'1212.3
2016-Jul-04 16:33N 42°59' E 007°24'1312.6
2016-Jul-04 15:33N 42°51' E 007°10'1413.3
2016-Jul-04 14:30N 42°43' E 006°55'2813.0
2016-Jul-04 12:19N 42°25' E 006°24'1012.5
2016-Jul-04 11:33N 42°19' E 006°14'1412.4
2016-Jul-04 10:24N 42°10' E 005°59'2312.2
2016-Jul-04 08:33N 41°56' E 005°36'2411.9
2016-Jul-04 06:33N 41°42' E 005°10'4011.9
2016-Jul-04 03:12N 41°16' E 004°29'4612.5
2016-Jul-03 23:33N 40°49' E 003°41'1312.7
2016-Jul-03 22:33N 40°41' E 003°28'1312.6
2016-Jul-03 21:34N 40°33' E 003°15'1312.6
2016-Jul-03 20:33N 40°25' E 003°02'1313.4
2016-Jul-03 19:33N 40°17' E 002°48'1313.5
2016-Jul-03 18:33N 40°09' E 002°34'1313.4
2016-Jul-03 17:33N 40°01' E 002°20'1413.6
2016-Jul-03 16:33N 39°52' E 002°06'1413.9
2016-Jul-03 15:33N 39°44' E 001°52'1413.8
2016-Jul-03 14:33N 39°35' E 001°38'1414.0
2016-Jul-03 13:33N 39°25' E 001°25'1414.0
2016-Jul-03 12:33N 39°16' E 001°12'1513.2
2016-Jul-03 11:24N 39°05' E 000°57'1113.2
2016-Jul-03 10:33N 38°57' E 000°47'2813.0
2016-Jul-03 08:23N 38°36' E 000°24'1011.7
2016-Jul-03 07:33N 38°28' E 000°16'1211.8
2016-Jul-03 06:33N 38°18' E 000°08'1211.6
2016-Jul-03 05:33N 38°09' E 000°00'1111.5
2016-Jul-03 04:34N 37°59' W 000°07'1211.8
2016-Jul-03 03:33N 37°49' W 000°16'1211.8
2016-Jul-03 02:33N 37°40' W 000°25'1211.6
2016-Jul-03 01:33N 37°30' W 000°34'1211.6
2016-Jul-03 00:33N 37°22' W 000°44'1211.6
2016-Jul-02 23:33N 37°14' W 000°55'1111.3
2016-Jul-02 22:33N 37°07' W 001°06'1211.5
2016-Jul-02 21:33N 36°59' W 001°17'1211.8
2016-Jul-02 20:33N 36°52' W 001°28'1212.2
2016-Jul-02 19:33N 36°44' W 001°40'1212.2
2016-Jul-02 18:33N 36°36' W 001°51'2811.9
2016-Jul-02 16:13N 36°21' W 002°20'812.2
2016-Jul-02 15:32N 36°19' W 002°30'  
Track history (hours):
 
Tides and Currents Weather Stations Pressure Air Temp Water Temp Dewpoint Dewpoint Depression Visibility Wind Speed Wind Dir Waves Ship Positions

Al Rawdah

Last reported at 2016-Jul-12 07:20 UTC. Time now 2016-Jul-25 08:12 UTC.
Position N 30°59' E 032°19'.
Warning: this ship's position is 13 days out of date.

Length 307 m; draft 13.3 m.

Type: Ship (hazmat cat A). MMSI: 538004160.

Date/timePositionNaut miles runAvg speedWind from/ knotsBaromVisibWave heightAir tempDewpointWater temp
2016-Jul-12 07:20N 30°59' E 032°19'10 9.4
2016-Jul-12 06:16N 31°09' E 032°18'6 2.9
2016-Jul-12 04:21N 31°14' E 032°18'0 0.0
2016-Jul-11 13:30N 31°14' E 032°18'2 0.5
2016-Jul-11 08:12N 31°17' E 032°20'7 9.3
2016-Jul-11 07:30N 31°23' E 032°22'3 2.1
2016-Jul-11 06:18N 31°24' E 032°20'0 0.0
2016-Jul-11 04:25N 31°24' E 032°20'3 3.0
2016-Jul-11 03:33N 31°26' E 032°18'1414.3
2016-Jul-11 02:33N 31°37' E 032°07'1716.8
2016-Jul-11 01:33N 31°48' E 031°52'1716.6
2016-Jul-11 00:33N 31°54' E 031°34'1716.9
2016-Jul-10 23:34N 31°59' E 031°15'1716.8
2016-Jul-10 22:33N 32°02' E 030°55'1716.9
2016-Jul-10 21:33N 32°07' E 030°36'1716.8
2016-Jul-10 20:33N 32°12' E 030°17'1916.8
2016-Jul-10 19:25N 32°17' E 029°55'1416.7
2016-Jul-10 18:33N 32°21' E 029°39'1716.6
2016-Jul-10 17:33N 32°25' E 029°20'1816.7
2016-Jul-10 16:29N 32°30' E 028°59'1716.7
2016-Jul-10 15:29N 32°34' E 028°40'2016.8
2016-Jul-10 14:18N 32°39' E 028°17'1617.5
2016-Jul-10 13:23N 32°44' E 027°59'9618.1
2016-Jul-10 08:04N 33°09' E 026°09'51218.5
2016-Jul-09 04:28N 35°26' E 016°11'1718.8
2016-Jul-09 03:33N 35°30' E 015°51'2018.7
2016-Jul-09 02:28N 35°35' E 015°27'1718.8
2016-Jul-09 01:33N 35°40' E 015°07'1919.1
2016-Jul-09 00:33N 35°45' E 014°44'1010.1
2016-Jul-08 23:33N 35°49' E 014°33'0 0.0
2016-Jul-08 22:29N 35°49' E 014°33'0 0.0
2016-Jul-08 21:32N 35°49' E 014°33'0 0.0
2016-Jul-08 20:05N 35°49' E 014°33'0 0.0
2016-Jul-08 19:26N 35°49' E 014°33'0 0.0
2016-Jul-08 18:32N 35°49' E 014°33'0 0.0
2016-Jul-08 16:32N 35°49' E 014°33'0 0.0
2016-Jul-08 15:11N 35°49' E 014°33'0 0.0
2016-Jul-08 13:29N 35°49' E 014°33'0 0.0
2016-Jul-08 12:32N 35°49' E 014°33'0 0.0
2016-Jul-08 11:29N 35°49' E 014°33'0 0.0
2016-Jul-08 10:32N 35°49' E 014°33'0 0.0
2016-Jul-08 09:32N 35°49' E 014°33'0 0.0
2016-Jul-08 08:32N 35°49' E 014°33'0 0.0
2016-Jul-08 07:29N 35°49' E 014°33'0 0.2
2016-Jul-08 06:33N 35°49' E 014°33'5 2.4
2016-Jul-08 04:33N 35°46' E 014°37'7 6.7
2016-Jul-08 03:33N 35°42' E 014°31'10 9.6
2016-Jul-08 02:33N 35°43' E 014°19'1212.4
2016-Jul-08 01:33N 35°51' E 014°07'1212.1
2016-Jul-08 00:33N 35°59' E 013°56'1211.8
2016-Jul-07 23:33N 36°07' E 013°45'1212.2
2016-Jul-07 22:33N 36°15' E 013°34'1212.5
2016-Jul-07 21:33N 36°24' E 013°23'5 4.7
2016-Jul-07 20:33N 36°28' E 013°19'0 0.4
2016-Jul-07 19:33N 36°28' E 013°19'1 0.9
2016-Jul-07 18:33N 36°29' E 013°19'7 6.6
2016-Jul-07 17:33N 36°34' E 013°14'1212.5
2016-Jul-07 16:33N 36°43' E 013°03'1212.5
2016-Jul-07 15:33N 36°52' E 012°52'1312.7
2016-Jul-07 14:33N 37°01' E 012°41'1212.3
2016-Jul-07 13:33N 37°10' E 012°30'10 9.7
2016-Jul-07 12:33N 37°18' E 012°23'1010.0
2016-Jul-07 11:33N 37°25' E 012°15'10 9.9
2016-Jul-07 10:33N 37°33' E 012°07'11 9.4
2016-Jul-07 09:24N 37°41' E 011°58'11 9.1
2016-Jul-07 08:14N 37°50' E 011°50'10 9.0
2016-Jul-07 07:10N 37°58' E 011°44'711.3
2016-Jul-07 06:31N 38°04' E 011°39'1111.1
2016-Jul-07 05:33N 38°14' E 011°33'1110.9
2016-Jul-07 04:33N 38°23' E 011°26'1111.2
2016-Jul-07 03:33N 38°33' E 011°18'1411.2
2016-Jul-07 02:20N 38°45' E 011°10'2211.5
2016-Jul-07 00:23N 39°05' E 010°57'1011.7
2016-Jul-06 23:33N 39°13' E 010°51'1211.7
2016-Jul-06 22:33N 39°24' E 010°44'1311.6
2016-Jul-06 21:24N 39°36' E 010°38'1011.8
2016-Jul-06 20:31N 39°47' E 010°36'1111.6
2016-Jul-06 19:33N 39°58' E 010°34'1111.4
2016-Jul-06 18:33N 40°09' E 010°31'1111.4
2016-Jul-06 17:33N 40°20' E 010°28'2412.0
2016-Jul-06 15:32N 40°44' E 010°23'22 9.4
2016-Jul-06 13:15N 41°05' E 010°17'8 8.9
2016-Jul-06 12:19N 41°13' E 010°15'7 8.9
2016-Jul-06 11:33N 41°20' E 010°13'18 8.8
2016-Jul-06 09:33N 41°37' E 010°08'1211.7
2016-Jul-06 08:33N 41°48' E 010°05'2221.7
2016-Jul-06 07:33N 42°10' E 010°00'2013.3
2016-Jul-06 06:04N 42°29' E 009°53'2011.8
2016-Jul-06 04:23N 42°47' E 009°43'1011.3
2016-Jul-06 03:32N 42°57' E 009°39'1111.3
2016-Jul-06 02:33N 43°07' E 009°34'1211.7
2016-Jul-06 01:33N 43°18' E 009°29'1211.7
2016-Jul-06 00:33N 43°29' E 009°23'1211.5
2016-Jul-05 23:33N 43°40' E 009°18'1111.4
2016-Jul-05 22:33N 43°51' E 009°13'1111.4
2016-Jul-05 21:33N 44°01' E 009°07'9 9.3
2016-Jul-05 20:33N 44°10' E 009°01'8 8.5
2016-Jul-05 19:33N 44°18' E 008°59'7 7.0
2016-Jul-05 18:33N 44°24' E 008°55'0 0.1
2016-Jul-05 17:32N 44°24' E 008°55'0 0.0
2016-Jul-05 16:32N 44°24' E 008°55'0 0.0
2016-Jul-05 15:32N 44°24' E 008°55'0 0.0
2016-Jul-05 14:32N 44°24' E 008°55'0 0.0
2016-Jul-05 13:32N 44°24' E 008°55'0 0.0
2016-Jul-05 12:32N 44°24' E 008°55'0 0.0
2016-Jul-05 11:32N 44°24' E 008°55'0 0.0
2016-Jul-05 10:32N 44°24' E 008°55'0 0.0
2016-Jul-05 09:32N 44°24' E 008°55'0 0.0
2016-Jul-05 08:26N 44°24' E 008°55'0 0.0
2016-Jul-05 07:32N 44°24' E 008°55'0 0.0
2016-Jul-05 06:32N 44°24' E 008°55'0 0.0
2016-Jul-05 04:32N 44°24' E 008°55'0 0.0
2016-Jul-05 03:33N 44°24' E 008°55'4 4.4
2016-Jul-05 02:33N 44°21' E 008°59'8 7.9
2016-Jul-05 01:33N 44°13' E 009°03'1111.3
2016-Jul-05 00:33N 44°02' E 009°04'1111.3
2016-Jul-04 23:33N 43°52' E 008°57'1212.2
2016-Jul-04 22:33N 43°45' E 008°44'1212.0
2016-Jul-04 21:34N 43°37' E 008°31'1212.4
2016-Jul-04 20:33N 43°30' E 008°17'1312.5
2016-Jul-04 19:33N 43°22' E 008°04'1312.6
2016-Jul-04 18:33N 43°14' E 007°50'1212.4
2016-Jul-04 17:33N 43°07' E 007°37'1212.3
2016-Jul-04 16:33N 42°59' E 007°24'1312.6
2016-Jul-04 15:33N 42°51' E 007°10'1413.3
2016-Jul-04 14:30N 42°43' E 006°55'2813.0
2016-Jul-04 12:19N 42°25' E 006°24'1012.5
2016-Jul-04 11:33N 42°19' E 006°14'1412.4
2016-Jul-04 10:24N 42°10' E 005°59'2312.2
2016-Jul-04 08:33N 41°56' E 005°36'2411.9
2016-Jul-04 06:33N 41°42' E 005°10'4011.9
2016-Jul-04 03:12N 41°16' E 004°29'4612.5
2016-Jul-03 23:33N 40°49' E 003°41'1312.7
2016-Jul-03 22:33N 40°41' E 003°28'1312.6
2016-Jul-03 21:34N 40°33' E 003°15'1312.6
2016-Jul-03 20:33N 40°25' E 003°02'1313.4
2016-Jul-03 19:33N 40°17' E 002°48'1313.5
2016-Jul-03 18:33N 40°09' E 002°34'1313.4
2016-Jul-03 17:33N 40°01' E 002°20'1413.6
2016-Jul-03 16:33N 39°52' E 002°06'1413.9
2016-Jul-03 15:33N 39°44' E 001°52'1413.8
2016-Jul-03 14:33N 39°35' E 001°38'1414.0
2016-Jul-03 13:33N 39°25' E 001°25'1414.0
2016-Jul-03 12:33N 39°16' E 001°12'1513.2
2016-Jul-03 11:24N 39°05' E 000°57'1113.2
2016-Jul-03 10:33N 38°57' E 000°47'2813.0
2016-Jul-03 08:23N 38°36' E 000°24'1011.7
2016-Jul-03 07:33N 38°28' E 000°16'1211.8
2016-Jul-03 06:33N 38°18' E 000°08'1211.6
2016-Jul-03 05:33N 38°09' E 000°00'1111.5
2016-Jul-03 04:34N 37°59' W 000°07'1211.8
2016-Jul-03 03:33N 37°49' W 000°16'1211.8
2016-Jul-03 02:33N 37°40' W 000°25'1211.6
2016-Jul-03 01:33N 37°30' W 000°34'1211.6
2016-Jul-03 00:33N 37°22' W 000°44'1211.6
2016-Jul-02 23:33N 37°14' W 000°55'1111.3
2016-Jul-02 22:33N 37°07' W 001°06'1211.5
2016-Jul-02 21:33N 36°59' W 001°17'1211.8
2016-Jul-02 20:33N 36°52' W 001°28'1212.2
2016-Jul-02 19:33N 36°44' W 001°40'1212.2
2016-Jul-02 18:33N 36°36' W 001°51'2811.9
2016-Jul-02 16:13N 36°21' W 002°20'812.2
2016-Jul-02 15:32N 36°19' W 002°30'  

Dump ship's entire track history